createdAt,value
2019-02-08T00:02:19.540Z,1.60
2019-02-08T00:04:50.263Z,2.00
2019-02-08T00:07:20.890Z,2.20
2019-02-08T00:09:51.803Z,1.93
2019-02-08T00:12:22.406Z,2.07
2019-02-08T00:14:53.014Z,2.00
2019-02-08T00:17:23.715Z,2.10
2019-02-08T00:19:54.549Z,2.23
2019-02-08T00:22:25.307Z,2.10
2019-02-08T00:24:56.064Z,1.97
2019-02-08T00:27:26.717Z,1.90
2019-02-08T00:29:57.373Z,1.73
2019-02-08T00:32:28.014Z,2.17
2019-02-08T00:34:58.926Z,2.40
2019-02-08T00:37:29.561Z,2.53
2019-02-08T00:40:00.205Z,2.43
2019-02-08T00:42:30.910Z,2.53
2019-02-08T00:45:01.498Z,2.27
2019-02-08T00:47:32.172Z,2.30
2019-02-08T00:50:02.877Z,2.30
2019-02-08T00:52:33.520Z,1.83
2019-02-08T00:55:04.415Z,1.90
2019-02-08T00:57:35.086Z,1.90
2019-02-08T01:00:08.765Z,2.10
2019-02-08T01:02:40.254Z,2.00
2019-02-08T01:05:13.955Z,1.70
2019-02-08T01:07:44.659Z,2.50
2019-02-08T01:10:28.285Z,1.57
2019-02-08T01:13:00.282Z,1.77
2019-02-08T01:15:31.585Z,1.83
2019-02-08T01:18:02.477Z,1.87
2019-02-08T01:20:33.136Z,2.10
2019-02-08T01:23:03.649Z,2.30
2019-02-08T01:25:34.193Z,2.03
2019-02-08T01:28:04.797Z,2.00
2019-02-08T01:30:36.135Z,1.90
2019-02-08T01:33:06.896Z,1.90
2019-02-08T01:35:37.765Z,2.50
2019-02-08T01:38:08.448Z,2.20
2019-02-08T01:40:39.749Z,2.40
2019-02-08T01:43:10.529Z,2.17
2019-02-08T01:45:41.236Z,2.30
2019-02-08T01:48:11.926Z,2.67
2019-02-08T01:50:42.608Z,1.70
2019-02-08T01:53:13.271Z,2.17
2019-02-08T01:55:43.973Z,2.33
2019-02-08T01:58:14.469Z,2.40
2019-02-08T02:00:46.095Z,2.40
2019-02-08T02:03:16.715Z,2.57
2019-02-08T02:05:47.384Z,2.93
2019-02-08T02:08:17.947Z,2.30
2019-02-08T02:10:48.646Z,2.40
2019-02-08T02:13:19.484Z,2.47
2019-02-08T02:15:52.972Z,3.07
2019-02-08T02:18:23.515Z,3.07
2019-02-08T02:20:54.042Z,2.90
2019-02-08T02:23:24.702Z,2.47
2019-02-08T02:25:57.300Z,2.30
2019-02-08T02:28:27.927Z,2.87
2019-02-08T02:30:58.563Z,2.63
2019-02-08T02:33:29.114Z,3.00
2019-02-08T02:35:59.846Z,2.80
2019-02-08T02:38:30.553Z,2.97
2019-02-08T02:41:01.135Z,2.60
2019-02-08T02:43:32.580Z,2.40
2019-02-08T02:46:03.207Z,2.30
2019-02-08T02:48:33.736Z,2.67
2019-02-08T02:51:04.393Z,2.57
2019-02-08T02:53:34.913Z,2.80
2019-02-08T02:56:05.764Z,2.30
2019-02-08T02:58:36.369Z,2.47
2019-02-08T03:01:07.111Z,2.53
2019-02-08T03:03:37.770Z,2.47
2019-02-08T03:06:08.428Z,2.47
2019-02-08T03:08:39.729Z,2.27
2019-02-08T03:11:10.671Z,1.90
2019-02-08T03:13:41.303Z,2.17
2019-02-08T03:16:11.981Z,2.00
2019-02-08T03:18:44.408Z,1.93
2019-02-08T03:21:15.043Z,1.93
2019-02-08T03:23:45.704Z,1.80
2019-02-08T03:26:16.308Z,1.73
2019-02-08T03:28:46.929Z,1.80
2019-02-08T03:31:17.587Z,1.73
2019-02-08T03:33:48.335Z,1.60
2019-02-08T03:36:18.947Z,1.98
2019-02-08T03:38:49.592Z,1.60
2019-02-08T03:41:20.270Z,1.33
2019-02-08T03:43:51.056Z,1.30
2019-02-08T03:46:21.877Z,1.37
2019-02-08T03:48:52.410Z,1.43
2019-02-08T03:51:23.137Z,1.50
2019-02-08T03:53:53.946Z,1.63
2019-02-08T03:56:24.865Z,1.30
2019-02-08T03:58:55.646Z,1.33
2019-02-08T04:01:26.442Z,1.53
2019-02-08T04:04:19.829Z,1.07
2019-02-08T04:06:53.605Z,1.53
2019-02-08T04:09:24.199Z,1.50
2019-02-08T04:11:55.116Z,1.67
2019-02-08T04:14:25.766Z,1.30
2019-02-08T04:16:56.632Z,1.33
2019-02-08T04:19:29.595Z,1.53
2019-02-08T04:22:00.282Z,1.53
2019-02-08T04:24:30.985Z,1.50
2019-02-08T04:27:01.690Z,1.60
2019-02-08T04:29:33.744Z,1.73
2019-02-08T04:32:04.440Z,1.40
2019-02-08T04:34:34.964Z,1.43
2019-02-08T04:37:05.797Z,1.70
2019-02-08T04:39:36.458Z,1.20
2019-02-08T04:42:07.506Z,1.73
2019-02-08T04:44:38.095Z,1.60
2019-02-08T04:47:08.739Z,1.73
2019-02-08T04:49:39.444Z,1.57
2019-02-08T04:52:10.083Z,1.47
2019-02-08T04:54:41.882Z,1.80
2019-02-08T04:57:13.846Z,1.82
2019-02-08T04:59:46.472Z,1.73
2019-02-08T05:02:56.262Z,1.90
2019-02-08T05:09:13.737Z,1.50
2019-02-08T05:11:44.325Z,1.63
2019-02-08T05:14:15.012Z,2.03
2019-02-08T05:16:53.060Z,1.80
2019-02-08T05:19:23.848Z,1.80
2019-02-08T05:21:54.525Z,1.93
2019-02-08T05:24:25.053Z,1.57
2019-02-08T05:26:55.763Z,1.57
2019-02-08T05:29:26.229Z,1.77
2019-02-08T05:31:56.744Z,1.70
2019-02-08T05:34:27.256Z,1.80
2019-02-08T05:36:57.836Z,1.70
2019-02-08T05:39:28.380Z,1.50
2019-02-08T05:41:58.957Z,2.17
2019-02-08T05:44:29.657Z,2.13
2019-02-08T05:47:02.853Z,1.63
2019-02-08T05:49:33.493Z,2.73
2019-02-08T05:52:04.174Z,1.87
2019-02-08T05:54:34.814Z,2.00
2019-02-08T05:57:05.832Z,2.22
2019-02-08T05:59:36.386Z,2.17
2019-02-08T06:02:07.158Z,2.53
2019-02-08T06:04:37.931Z,2.50
2019-02-08T06:07:08.676Z,2.40
2019-02-08T06:09:39.302Z,2.00
2019-02-08T06:12:10.060Z,2.20
2019-02-08T06:14:40.732Z,2.00
2019-02-08T06:17:11.350Z,2.37
2019-02-08T06:19:42.049Z,2.13
2019-02-08T06:22:18.687Z,2.50
2019-02-08T06:24:49.307Z,2.40
2019-02-08T06:27:19.841Z,2.17
2019-02-08T06:29:50.479Z,2.30
2019-02-08T06:32:21.174Z,1.90
2019-02-08T06:34:51.836Z,2.07
2019-02-08T06:37:22.449Z,2.20
2019-02-08T06:39:53.114Z,2.27
2019-02-08T06:42:23.757Z,2.37
2019-02-08T06:44:54.427Z,2.30
2019-02-08T06:47:25.003Z,2.20
2019-02-08T06:49:55.740Z,2.20
2019-02-08T06:52:26.448Z,2.40
2019-02-08T06:54:57.149Z,1.93
2019-02-08T06:57:52.768Z,2.87
2019-02-08T07:00:34.422Z,2.37
2019-02-08T07:03:27.150Z,2.43
2019-02-08T07:06:05.186Z,2.57
2019-02-08T07:09:06.720Z,1.87
2019-02-08T07:11:55.683Z,2.83
2019-02-08T07:14:33.952Z,2.37
2019-02-08T07:17:28.432Z,2.17
2019-02-08T07:20:08.042Z,2.57
2019-02-08T07:23:10.657Z,2.63
2019-02-08T07:25:58.865Z,2.50
2019-02-08T07:28:51.570Z,2.43
2019-02-08T07:31:49.973Z,2.53
2019-02-08T07:34:48.365Z,2.20
2019-02-08T07:37:35.127Z,2.40
2019-02-08T07:40:26.311Z,2.40
2019-02-08T07:43:10.673Z,2.23
2019-02-08T07:45:54.984Z,2.20
2019-02-08T07:48:37.336Z,2.30
2019-02-08T07:51:24.611Z,1.70
2019-02-08T07:54:29.885Z,2.20
2019-02-08T07:57:20.547Z,2.10
2019-02-08T08:00:13.784Z,2.30
2019-02-08T08:03:09.796Z,2.33
2019-02-08T08:05:59.355Z,2.50
2019-02-08T08:09:04.623Z,2.00
2019-02-08T08:11:47.323Z,2.10
2019-02-08T08:14:37.107Z,2.17
2019-02-08T08:17:32.881Z,2.30
2019-02-08T08:20:42.575Z,2.17
2019-02-08T08:23:28.133Z,1.73
2019-02-08T08:26:31.438Z,2.00
2019-02-08T08:29:23.592Z,1.80
2019-02-08T08:32:20.246Z,2.10
2019-02-08T08:36:04.170Z,2.10
2019-02-08T08:40:04.976Z,1.90
2019-02-08T08:43:42.907Z,1.80
2019-02-08T08:47:07.219Z,1.50
2019-02-08T08:50:26.359Z,1.73
2019-02-08T08:53:20.907Z,1.50
2019-02-08T08:56:34.128Z,1.73
2019-02-08T08:59:48.128Z,2.00
2019-02-08T09:03:13.551Z,1.60
2019-02-08T09:06:49.018Z,1.77
2019-02-08T09:09:52.107Z,1.50
2019-02-08T09:13:15.167Z,1.47
2019-02-08T09:16:29.203Z,1.40
2019-02-08T09:20:01.639Z,1.43
2019-02-08T09:23:23.846Z,1.30
2019-02-08T09:26:25.874Z,1.43
2019-02-08T09:30:04.560Z,1.50
2019-02-08T09:33:42.017Z,1.20
2019-02-08T09:37:32.413Z,1.50
2019-02-08T09:41:10.663Z,1.80
2019-02-08T09:44:29.532Z,1.67
2019-02-08T09:48:23.631Z,1.40
2019-02-08T09:51:57.575Z,1.30
2019-02-08T09:55:39.222Z,1.03
2019-02-08T09:58:58.004Z,1.50
2019-02-08T10:02:39.771Z,1.17
2019-02-08T10:05:53.193Z,1.50
2019-02-08T10:09:29.460Z,1.63
2019-02-08T10:12:55.776Z,1.33
2019-02-08T10:16:24.487Z,1.07
2019-02-08T10:20:09.616Z,1.33
2019-02-08T10:23:49.250Z,1.60
2019-02-08T10:27:39.963Z,1.40
2019-02-08T10:31:19.072Z,1.40
2019-02-08T10:34:39.256Z,1.10
2019-02-08T10:38:09.620Z,1.10
2019-02-08T10:41:35.205Z,1.40
2019-02-08T10:44:40.952Z,1.43
2019-02-08T10:47:58.640Z,1.33
2019-02-08T10:51:23.389Z,1.30
2019-02-08T10:55:16.707Z,1.33
2019-02-08T10:58:50.464Z,1.20
2019-02-08T11:02:33.075Z,1.30
2019-02-08T11:06:12.233Z,1.17
2019-02-08T11:09:33.956Z,1.20
2019-02-08T11:13:04.367Z,1.60
2019-02-08T11:16:44.515Z,1.05
2019-02-08T11:19:22.556Z,1.17
2019-02-08T11:21:56.563Z,1.20
2019-02-08T11:24:32.427Z,1.53
2019-02-08T11:27:10.586Z,1.07
2019-02-08T11:29:46.344Z,1.10
2019-02-08T11:32:18.258Z,1.20
2019-02-08T11:34:48.895Z,1.13
2019-02-08T11:37:20.315Z,0.90
2019-02-08T11:39:51.138Z,0.97
2019-02-08T11:42:22.259Z,1.37
2019-02-08T11:44:52.966Z,1.07
2019-02-08T11:47:23.715Z,0.90
2019-02-08T11:49:54.415Z,1.40
2019-02-08T11:52:27.001Z,1.10
2019-02-08T11:54:57.583Z,1.10
2019-02-08T11:57:28.280Z,1.03
2019-02-08T11:59:58.861Z,1.50
2019-02-08T12:02:29.435Z,1.40
2019-02-08T12:05:00.047Z,1.20
2019-02-08T12:07:30.692Z,1.50
2019-02-08T12:10:02.333Z,1.10
2019-02-08T12:12:32.929Z,1.20
2019-02-08T12:15:03.649Z,1.10
2019-02-08T12:17:34.349Z,1.30
2019-02-08T12:20:06.805Z,1.00
2019-02-08T12:22:37.525Z,1.00
2019-02-08T12:25:08.872Z,0.90
2019-02-08T12:27:39.464Z,1.50
2019-02-08T12:30:20.487Z,1.23
2019-02-08T12:32:53.270Z,1.10
2019-02-08T12:35:29.722Z,1.40
2019-02-08T12:38:00.410Z,1.20
2019-02-08T12:40:30.934Z,1.40
2019-02-08T12:43:01.508Z,1.47
2019-02-08T12:45:32.246Z,1.50
2019-02-08T12:48:03.038Z,1.40
2019-02-08T12:50:33.703Z,1.30
2019-02-08T12:53:04.618Z,1.10
2019-02-08T12:55:35.434Z,1.30
2019-02-08T12:58:06.047Z,1.03
2019-02-08T13:00:36.656Z,1.67
2019-02-08T13:03:07.164Z,1.30
2019-02-08T13:05:37.794Z,1.40
2019-02-08T13:08:08.507Z,1.13
2019-02-08T13:10:39.081Z,1.43
2019-02-08T13:13:09.753Z,0.90
2019-02-08T13:15:40.319Z,1.27
2019-02-08T13:18:13.616Z,1.27
2019-02-08T13:20:44.324Z,1.40
2019-02-08T13:23:14.818Z,1.33
2019-02-08T13:25:45.448Z,1.17
2019-02-08T13:28:19.019Z,1.23
2019-02-08T13:30:49.656Z,1.20
2019-02-08T13:33:20.215Z,1.40
2019-02-08T13:35:50.810Z,1.30
2019-02-08T13:38:21.888Z,1.10
2019-02-08T13:40:52.703Z,0.90
2019-02-08T13:43:23.474Z,1.37
2019-02-08T13:45:54.134Z,1.20
2019-02-08T13:48:24.876Z,1.13
2019-02-08T13:50:55.679Z,1.10
2019-02-08T13:53:26.370Z,1.10
2019-02-08T13:55:57.012Z,1.60
2019-02-08T13:58:28.240Z,1.03
2019-02-08T14:00:58.858Z,0.97
2019-02-08T14:03:29.466Z,0.90
2019-02-08T14:06:04.364Z,1.10
2019-02-08T14:08:34.999Z,0.90
2019-02-08T14:11:06.108Z,0.77
2019-02-08T14:13:40.604Z,1.10
2019-02-08T14:16:12.137Z,1.03
2019-02-08T14:18:45.601Z,1.10
2019-02-08T14:21:16.664Z,0.83
2019-02-08T14:23:47.400Z,1.10
2019-02-08T14:26:18.221Z,1.07
2019-02-08T14:28:48.838Z,0.87
2019-02-08T14:31:19.616Z,1.20
2019-02-08T14:33:50.244Z,1.40
2019-02-08T14:36:21.058Z,1.00
2019-02-08T14:38:55.446Z,1.13
2019-02-08T14:41:26.049Z,1.00
2019-02-08T14:43:59.108Z,1.10
2019-02-08T14:46:29.764Z,1.10
2019-02-08T14:49:00.415Z,1.20
2019-02-08T14:51:31.979Z,0.97
2019-02-08T14:54:02.809Z,1.00
2019-02-08T16:11:02.192Z,1.10
2019-02-08T16:13:32.812Z,1.17
2019-02-08T16:16:03.642Z,1.10
2019-02-08T16:18:34.296Z,1.30
2019-02-08T16:21:05.055Z,1.10
2019-02-08T16:23:35.659Z,1.37
2019-02-08T16:26:07.110Z,1.47
2019-02-08T16:28:37.776Z,1.27
2019-02-08T16:31:09.321Z,1.20
2019-02-08T16:33:40.046Z,1.10
2019-02-08T16:36:10.878Z,1.40
2019-02-08T16:38:41.564Z,1.30
2019-02-08T16:41:12.355Z,1.20
2019-02-08T16:43:43.811Z,1.50
2019-02-08T16:46:14.525Z,1.47
2019-02-08T16:48:45.120Z,1.43
2019-02-08T16:51:18.388Z,1.37
2019-02-08T16:53:53.584Z,1.10
2019-02-08T16:56:21.375Z,1.27
2019-02-08T16:58:52.088Z,1.40
2019-02-08T17:01:24.947Z,1.60
2019-02-08T17:03:55.665Z,1.30
2019-02-08T17:06:26.381Z,1.33
2019-02-08T17:08:56.982Z,1.20
2019-02-08T17:11:27.619Z,1.27
2019-02-08T17:14:01.340Z,1.10
2019-02-08T17:16:31.892Z,1.30
2019-02-08T17:19:02.508Z,1.23
2019-02-08T17:21:33.155Z,1.03
2019-02-08T17:24:03.795Z,1.20
2019-02-08T17:26:34.475Z,1.50
2019-02-08T17:29:05.071Z,1.00
2019-02-08T17:31:35.772Z,1.17
2019-02-08T17:34:06.696Z,1.37
2019-02-08T17:36:37.314Z,1.10
2019-02-08T17:39:09.327Z,1.40
2019-02-08T17:41:39.924Z,1.13
2019-02-08T17:44:10.632Z,1.40
2019-02-08T17:46:41.211Z,1.10
2019-02-08T17:49:11.874Z,1.30
2019-02-08T17:51:42.488Z,1.17
2019-02-08T17:54:13.072Z,1.20
2019-02-08T17:56:45.014Z,1.40
2019-02-08T17:59:15.735Z,1.63
2019-02-08T18:01:47.886Z,1.20
2019-02-08T18:04:18.504Z,1.53
2019-02-08T18:06:49.068Z,1.60
2019-02-08T18:09:19.717Z,1.23
2019-02-08T18:11:50.402Z,1.10
2019-02-08T18:14:23.044Z,1.40
2019-02-08T18:16:53.591Z,1.80
2019-02-08T18:19:24.321Z,1.40
2019-02-08T18:21:57.993Z,1.60
2019-02-08T18:24:28.630Z,1.20
2019-02-08T18:26:59.225Z,1.27
2019-02-08T18:29:29.831Z,1.70
2019-02-08T18:32:00.529Z,1.60
2019-02-08T18:34:31.141Z,1.50
2019-02-08T18:37:01.842Z,1.32
2019-02-08T18:39:32.422Z,1.30
2019-02-08T18:42:03.020Z,1.77
2019-02-08T18:44:33.610Z,1.33
2019-02-08T18:47:04.185Z,1.50
2019-02-08T18:49:34.815Z,1.17
2019-02-08T18:52:05.400Z,1.13
2019-02-08T18:54:36.026Z,1.50
2019-02-08T18:57:06.709Z,1.30
2019-02-08T18:59:37.293Z,1.23
2019-02-08T19:02:08.274Z,1.43
2019-02-08T19:04:40.938Z,1.50
2019-02-08T19:07:11.612Z,1.40
2019-02-08T19:09:42.180Z,1.60
2019-02-08T19:12:12.795Z,1.70
2019-02-08T19:14:43.396Z,1.20
2019-02-08T19:17:14.030Z,1.50
2019-02-08T19:19:44.648Z,1.20
2019-02-08T19:22:15.215Z,1.10
2019-02-08T19:24:45.860Z,1.37
2019-02-08T19:27:16.409Z,1.20
2019-02-08T19:29:47.016Z,1.17
2019-02-08T19:32:17.673Z,1.70
2019-02-08T19:34:48.266Z,1.90
2019-02-08T19:37:18.895Z,1.40
2019-02-08T19:39:49.481Z,1.83
2019-02-08T19:42:20.070Z,1.20
2019-02-08T19:44:50.688Z,1.50
2019-02-08T19:47:21.565Z,1.40
2019-02-08T19:49:53.420Z,1.33
2019-02-08T19:52:24.138Z,1.20
2019-02-08T19:54:54.965Z,1.43
2019-02-08T19:57:25.715Z,1.27
2019-02-08T19:59:56.336Z,1.37
2019-02-08T20:02:27.093Z,0.90
2019-02-08T20:04:57.687Z,1.30
2019-02-08T20:07:28.330Z,1.37
2019-02-08T20:09:58.954Z,1.50
2019-02-08T20:12:29.534Z,1.77
2019-02-08T20:15:00.477Z,1.40
2019-02-08T20:17:31.091Z,1.97
2019-02-08T20:20:01.807Z,1.33
2019-02-08T20:22:32.378Z,1.20
2019-02-08T20:25:03.627Z,1.50
2019-02-08T20:27:34.283Z,1.10
2019-02-08T20:30:07.425Z,1.92
2019-02-08T20:32:38.173Z,1.20
2019-02-08T20:35:13.816Z,1.82
2019-02-08T20:37:44.407Z,1.20
2019-02-08T20:40:21.282Z,1.13
2019-02-08T20:42:52.083Z,1.20
2019-02-08T20:45:26.210Z,1.40
2019-02-08T20:47:58.078Z,1.13
2019-02-08T20:50:28.945Z,1.00
2019-02-08T20:53:00.209Z,1.03
2019-02-08T20:55:31.335Z,1.97
2019-02-08T20:58:02.162Z,1.67
2019-02-08T21:00:36.870Z,1.20
2019-02-08T21:03:15.872Z,1.30
2019-02-08T21:05:48.385Z,1.50
2019-02-08T21:08:22.037Z,1.30
2019-02-08T21:10:54.697Z,1.77
2019-02-08T21:13:25.474Z,1.23
2019-02-08T21:15:56.328Z,1.10
2019-02-08T21:18:26.997Z,1.30
2019-02-08T21:21:00.665Z,1.40
2019-02-08T21:23:33.681Z,1.50
2019-02-08T21:26:05.015Z,1.53
2019-02-08T21:28:38.191Z,0.80
2019-02-08T21:31:08.930Z,1.10
2019-02-08T21:33:39.577Z,1.30
2019-02-08T21:36:10.383Z,1.30
2019-02-08T21:38:41.049Z,1.30
2019-02-08T21:41:11.664Z,1.33
2019-02-08T21:43:42.310Z,1.20
2019-02-08T21:46:14.772Z,1.30
2019-02-08T21:48:45.431Z,1.07
2019-02-08T21:51:30.859Z,1.20
2019-02-08T21:54:01.552Z,1.33
2019-02-08T21:56:32.192Z,1.20
2019-02-08T21:59:06.260Z,1.20
2019-02-08T22:01:35.228Z,1.10
2019-02-08T22:04:06.284Z,1.27
2019-02-08T22:06:37.022Z,1.30
2019-02-08T22:09:09.805Z,1.30
2019-02-08T22:11:40.507Z,1.30
2019-02-08T22:14:14.277Z,1.13
2019-02-08T22:16:44.912Z,1.10
2019-02-08T22:19:15.806Z,2.23
2019-02-08T22:21:46.608Z,1.37
2019-02-08T22:24:17.395Z,1.30
2019-02-08T22:26:48.217Z,1.47
2019-02-08T22:29:18.841Z,1.43
2019-02-08T22:31:49.492Z,1.03
2019-02-08T22:34:20.089Z,1.37
2019-02-08T22:36:52.495Z,1.47
2019-02-08T22:39:23.070Z,1.50
2019-02-08T22:41:55.964Z,1.30
2019-02-08T22:44:26.601Z,1.47
2019-02-08T22:46:57.185Z,1.33
2019-02-08T22:49:27.864Z,1.10
2019-02-08T22:51:58.460Z,1.30
2019-02-08T22:54:38.081Z,1.20
2019-02-08T22:57:08.970Z,1.57
2019-02-08T22:59:39.882Z,1.07
2019-02-08T23:02:12.022Z,1.43
2019-02-08T23:04:42.972Z,1.57
2019-02-08T23:07:13.652Z,1.10
2019-02-08T23:09:44.320Z,1.37
2019-02-08T23:12:32.294Z,1.20
2019-02-08T23:15:02.920Z,1.57
2019-02-08T23:17:33.500Z,1.27
2019-02-08T23:20:06.989Z,1.47
2019-02-08T23:22:37.692Z,1.40
2019-02-08T23:25:08.813Z,1.37
2019-02-08T23:27:39.498Z,1.37
2019-02-08T23:30:11.642Z,1.50
2019-02-08T23:32:42.241Z,1.27
2019-02-08T23:35:13.202Z,1.30
2019-02-08T23:37:45.252Z,0.93
2019-02-08T23:40:16.071Z,1.17
2019-02-08T23:42:47.178Z,1.33
2019-02-08T23:45:55.454Z,1.60
2019-02-08T23:48:43.696Z,1.40
2019-02-08T23:51:40.579Z,1.20
2019-02-08T23:54:11.249Z,1.30
2019-02-08T23:56:42.113Z,1.27
2019-02-08T23:59:12.840Z,1.50
